Time;durP1;ratioP1;P1;durP2;ratioP2;P2;SDS_P1;SDS_P2;PMS_P1;PMS_P2;Temp;Humidity;BMP_temperature;BMP_pressure;BME280_temperature;BME280_humidity;BME280_pressure;Samples;Min_cycle;Max_cycle;Signal;HPM_P1;HPM_P2
2021/01/26 00:01:04;;;;;;;;;;;31.70;56.50;;;;;;4981605;28;19910;-80
2021/01/26 00:03:31;;;;;;;;;;;31.70;56.20;;;;;;4992656;28;19972;-78
2021/01/26 00:05:58;;;;;;;;;;;31.90;55.90;;;;;;4993650;28;20049;-78
2021/01/26 00:08:24;;;;;;;;;;;31.90;54.30;;;;;;4993753;28;19921;-79
2021/01/26 00:10:51;;;;;;;;;;;32.20;53.00;;;;;;4992214;28;19928;-78
2021/01/26 00:13:19;;;;;;;;;;;32.30;54.20;;;;;;4988981;28;19941;-78
2021/01/26 00:15:47;;;;;;;;;;;32.30;53.70;;;;;;4993559;28;19968;-79
2021/01/26 00:18:13;;;;;;;;;;;32.50;52.80;;;;;;4994003;28;20296;-79
2021/01/26 00:20:40;;;;;;;;;;;32.60;51.30;;;;;;4994289;28;20388;-79
2021/01/26 00:23:07;;;;;;;;;;;32.60;52.00;;;;;;4992057;28;19921;-79
2021/01/26 00:25:35;;;;;;;;;;;32.60;51.20;;;;;;4993856;28;20011;-86
2021/01/26 00:28:02;;;;;;;;;;;32.60;50.50;;;;;;4980540;28;19921;-81
2021/01/26 00:30:31;;;;;;;;;;;32.60;50.60;;;;;;4979160;28;19917;-79
2021/01/26 00:33:01;;;;;;;;;;;32.70;50.00;;;;;;4993801;28;20000;-78
2021/01/26 00:35:29;;;;;;;;;;;32.80;51.00;;;;;;4993850;28;19988;-78
2021/01/26 00:38:00;;;;;;;;;;;32.70;50.70;;;;;;4994584;28;20008;-79
2021/01/26 00:40:27;;;;;;;;;;;32.80;50.70;;;;;;4994332;28;20352;-78
2021/01/26 00:42:53;;;;;;;;;;;32.90;49.50;;;;;;4985832;28;19918;-81
2021/01/26 00:45:21;;;;;;;;;;;32.80;49.90;;;;;;4987586;28;20352;-78
2021/01/26 00:47:47;;;;;;;;;;;32.80;49.90;;;;;;4983988;28;19948;-80
2021/01/26 00:50:15;;;;;;;;;;;33.00;49.60;;;;;;4984854;28;19917;-79
2021/01/26 00:52:42;;;;;;;;;;;33.20;49.40;;;;;;4983100;28;20396;-79
2021/01/26 00:55:09;;;;;;;;;;;33.60;49.50;;;;;;4973964;28;20365;-79
2021/01/26 00:57:36;;;;;;;;;;;33.80;48.40;;;;;;4975320;28;20005;-82
2021/01/26 01:00:05;;;;;;;;;;;34.10;47.70;;;;;;4974896;28;19921;-84
2021/01/26 01:02:31;;;;;;;;;;;34.30;47.40;;;;;;4991355;28;19913;-78
2021/01/26 01:04:58;;;;;;;;;;;34.80;46.50;;;;;;4992740;28;19966;-80
2021/01/26 01:07:24;;;;;;;;;;;35.40;45.30;;;;;;4994005;28;20402;-79
2021/01/26 01:09:51;;;;;;;;;;;36.00;44.90;;;;;;4994270;28;20004;-83
2021/01/26 01:12:18;;;;;;;;;;;36.00;44.50;;;;;;4993328;28;19910;-83
2021/01/26 01:14:44;;;;;;;;;;;36.40;45.00;;;;;;4992266;28;19926;-80
2021/01/26 01:17:11;;;;;;;;;;;36.70;43.10;;;;;;4992567;28;19929;-82
2021/01/26 01:19:38;;;;;;;;;;;36.80;43.10;;;;;;4992736;28;19920;-79
2021/01/26 01:22:05;;;;;;;;;;;36.80;43.20;;;;;;4994220;28;20061;-82
2021/01/26 01:24:31;;;;;;;;;;;36.70;43.30;;;;;;4974302;28;19980;-82
2021/01/26 01:26:58;;;;;;;;;;;36.90;42.50;;;;;;4992869;28;20284;-79
2021/01/26 01:29:29;;;;;;;;;;;36.90;42.40;;;;;;4993287;28;20015;-80
2021/01/26 01:31:56;;;;;;;;;;;36.90;43.40;;;;;;4993726;28;19914;-83
2021/01/26 01:34:22;;;;;;;;;;;36.90;42.70;;;;;;4992859;28;20315;-83
2021/01/26 01:36:49;;;;;;;;;;;37.30;42.00;;;;;;4993875;28;20005;-79
2021/01/26 01:39:15;;;;;;;;;;;37.40;41.40;;;;;;5015302;28;20042;-79
2021/01/26 01:41:42;;;;;;;;;;;37.70;41.00;;;;;;5002837;28;20262;-81
2021/01/26 01:44:24;;;;;;;;;;;37.90;41.10;;;;;;4994478;28;19933;-84
2021/01/26 01:46:55;;;;;;;;;;;38.20;40.20;;;;;;4975995;28;20390;-81
2021/01/26 01:49:24;;;;;;;;;;;38.20;40.30;;;;;;4974708;28;19922;-82
2021/01/26 01:51:51;;;;;;;;;;;38.20;39.30;;;;;;4974192;28;19914;-80
2021/01/26 01:54:21;;;;;;;;;;;37.70;40.70;;;;;;4990530;28;19937;-82
2021/01/26 01:57:10;;;;;;;;;;;37.80;40.60;;;;;;4993244;28;19922;-81
2021/01/26 01:59:42;;;;;;;;;;;38.10;40.40;;;;;;4992953;28;20360;-80
2021/01/26 02:02:09;;;;;;;;;;;37.60;38.70;;;;;;4992596;28;19983;-78
2021/01/26 02:04:37;;;;;;;;;;;37.10;41.90;;;;;;4994849;28;19920;-79
2021/01/26 02:07:04;;;;;;;;;;;36.80;41.80;;;;;;4993341;28;19913;-80
2021/01/26 02:09:32;;;;;;;;;;;36.40;42.60;;;;;;4993431;28;19919;-78
2021/01/26 02:11:59;;;;;;;;;;;36.20;42.90;;;;;;4991651;28;19961;-81
2021/01/26 02:14:28;;;;;;;;;;;35.90;41.80;;;;;;4992775;28;19916;-83
2021/01/26 02:17:13;;;;;;;;;;;35.90;42.60;;;;;;4992835;28;20299;-81
2021/01/26 02:19:45;;;;;;;;;;;35.70;41.90;;;;;;4986178;28;19920;-80
2021/01/26 02:22:14;;;;;;;;;;;35.80;42.50;;;;;;4992938;28;19914;-78
2021/01/26 02:24:50;;;;;;;;;;;35.70;43.70;;;;;;4993049;28;19949;-80
2021/01/26 02:27:20;;;;;;;;;;;35.70;41.80;;;;;;4977242;28;19960;-80
2021/01/26 02:30:16;;;;;;;;;;;35.70;42.20;;;;;;4993613;28;19917;-78
2021/01/26 02:32:48;;;;;;;;;;;35.70;42.00;;;;;;4974476;28;19917;-80
2021/01/26 02:35:30;;;;;;;;;;;35.70;42.90;;;;;;4989178;28;20265;-77
2021/01/26 02:38:18;;;;;;;;;;;35.70;41.90;;;;;;4982450;28;19909;-79
2021/01/26 02:40:54;;;;;;;;;;;35.90;40.90;;;;;;4992907;28;19914;-80
2021/01/26 02:43:29;;;;;;;;;;;35.90;40.90;;;;;;4993027;28;19910;-77
2021/01/26 02:46:25;;;;;;;;;;;35.70;42.00;;;;;;4995202;28;19914;-78
2021/01/26 02:49:01;;;;;;;;;;;35.50;42.00;;;;;;4974377;28;19924;-79
2021/01/26 02:51:34;;;;;;;;;;;35.40;41.40;;;;;;4996482;28;20262;-77
2021/01/26 02:54:01;;;;;;;;;;;35.50;40.60;;;;;;4995525;28;19928;-79
2021/01/26 02:56:31;;;;;;;;;;;35.50;40.50;;;;;;4995937;28;20016;-78
2021/01/26 02:59:18;;;;;;;;;;;35.50;41.70;;;;;;4996690;28;19910;-82
2021/01/26 03:01:48;;;;;;;;;;;35.60;41.10;;;;;;4996441;28;19917;-81
2021/01/26 03:04:21;;;;;;;;;;;35.60;40.00;;;;;;4996183;28;19910;-79
2021/01/26 03:06:50;;;;;;;;;;;35.50;41.10;;;;;;4995262;28;20305;-80
2021/01/26 03:09:20;;;;;;;;;;;35.40;40.30;;;;;;4994452;28;20391;-79
2021/01/26 03:11:55;;;;;;;;;;;35.40;39.70;;;;;;4995356;28;19921;-78
2021/01/26 03:14:34;;;;;;;;;;;35.30;40.90;;;;;;4995807;28;19918;-79
2021/01/26 03:17:21;;;;;;;;;;;35.40;42.60;;;;;;4995575;28;19921;-80
2021/01/26 03:19:49;;;;;;;;;;;35.60;47.90;;;;;;4995431;28;19921;-78
2021/01/26 03:22:18;;;;;;;;;;;35.50;49.10;;;;;;5018257;28;19940;-81
2021/01/26 03:24:46;;;;;;;;;;;35.20;49.30;;;;;;5005265;28;19957;-81
2021/01/26 03:27:15;;;;;;;;;;;35.00;48.90;;;;;;4995683;28;19965;-81
2021/01/26 03:29:43;;;;;;;;;;;34.80;42.50;;;;;;4967736;28;19910;-82
2021/01/26 03:32:12;;;;;;;;;;;35.00;43.80;;;;;;4976288;28;19938;-81
2021/01/26 03:34:38;;;;;;;;;;;35.20;50.00;;;;;;4987328;28;20109;-80
2021/01/26 03:37:06;;;;;;;;;;;35.10;50.10;;;;;;4995454;28;19937;-80
2021/01/26 03:39:33;;;;;;;;;;;35.00;50.00;;;;;;4996105;28;19909;-78
2021/01/26 03:42:00;;;;;;;;;;;35.10;49.40;;;;;;4995911;28;19910;-79
2021/01/26 03:44:28;;;;;;;;;;;35.20;50.10;;;;;;4995203;28;19913;-78
2021/01/26 03:47:00;;;;;;;;;;;35.10;50.60;;;;;;4995281;28;19909;-80
2021/01/26 03:49:52;;;;;;;;;;;35.00;51.10;;;;;;5003403;28;19910;-80
2021/01/26 03:52:40;;;;;;;;;;;34.70;51.70;;;;;;5011477;28;19910;-81
2021/01/26 03:55:25;;;;;;;;;;;34.70;51.50;;;;;;4995329;28;19926;-79
2021/01/26 03:58:05;;;;;;;;;;;34.60;51.50;;;;;;4991896;28;19922;-80
2021/01/26 04:00:34;;;;;;;;;;;34.50;51.70;;;;;;4992986;28;19940;-80
2021/01/26 04:03:19;;;;;;;;;;;34.40;52.00;;;;;;4995258;28;19969;-78
2021/01/26 04:05:46;;;;;;;;;;;34.60;51.00;;;;;;4997124;28;20258;-81
2021/01/26 04:08:15;;;;;;;;;;;34.80;51.70;;;;;;4998701;28;19916;-81
2021/01/26 04:10:50;;;;;;;;;;;34.70;51.80;;;;;;4997619;28;19914;-80
2021/01/26 04:13:18;;;;;;;;;;;34.50;52.10;;;;;;4978452;28;20307;-80
2021/01/26 04:15:57;;;;;;;;;;;34.50;52.20;;;;;;4995515;28;19930;-80
2021/01/26 04:18:37;;;;;;;;;;;34.40;52.80;;;;;;4994366;28;19974;-80
2021/01/26 04:21:04;;;;;;;;;;;34.30;52.50;;;;;;4993070;28;20394;-80
2021/01/26 04:23:31;;;;;;;;;;;34.40;53.50;;;;;;4995826;28;19995;-80
2021/01/26 04:26:08;;;;;;;;;;;34.40;53.00;;;;;;4994661;28;19918;-80
2021/01/26 04:28:40;;;;;;;;;;;34.40;54.10;;;;;;4994990;28;19917;-81
2021/01/26 04:31:08;;;;;;;;;;;34.20;54.40;;;;;;4994397;28;19921;-78
2021/01/26 04:33:34;;;;;;;;;;;34.20;54.70;;;;;;4994386;28;19913;-82
2021/01/26 04:36:02;;;;;;;;;;;34.10;54.50;;;;;;4994569;28;19972;-80
2021/01/26 04:38:29;;;;;;;;;;;34.10;54.90;;;;;;4994405;28;20328;-80
2021/01/26 04:41:02;;;;;;;;;;;34.00;54.80;;;;;;4994150;28;19913;-81
2021/01/26 04:43:41;;;;;;;;;;;33.80;54.00;;;;;;4991283;28;20320;-81
2021/01/26 04:46:29;;;;;;;;;;;33.70;55.50;;;;;;4994329;28;20358;-80
2021/01/26 04:48:59;;;;;;;;;;;33.40;54.00;;;;;;4993659;28;19917;-82
2021/01/26 04:51:25;;;;;;;;;;;33.20;56.60;;;;;;4993667;28;19996;-82
2021/01/26 04:53:58;;;;;;;;;;;33.10;57.00;;;;;;4989344;28;19925;-78
2021/01/26 04:56:33;;;;;;;;;;;32.80;58.00;;;;;;4992223;28;19926;-81
2021/01/26 04:59:20;;;;;;;;;;;32.80;58.20;;;;;;4986690;28;19910;-80
2021/01/26 05:01:47;;;;;;;;;;;32.70;58.70;;;;;;4994096;28;19937;-80
2021/01/26 05:04:15;;;;;;;;;;;32.60;59.70;;;;;;4987530;28;20357;-80
2021/01/26 05:06:52;;;;;;;;;;;32.50;59.90;;;;;;4993569;28;20324;-80
2021/01/26 05:09:26;;;;;;;;;;;32.60;60.30;;;;;;4992970;28;19917;-79
2021/01/26 05:11:54;;;;;;;;;;;32.60;61.00;;;;;;4993701;28;19914;-79
2021/01/26 05:14:23;;;;;;;;;;;32.70;60.70;;;;;;4976946;28;20361;-81
2021/01/26 05:16:55;;;;;;;;;;;32.80;60.80;;;;;;4984760;28;20017;-81
2021/01/26 05:19:43;;;;;;;;;;;32.80;61.20;;;;;;4992409;28;19968;-81
2021/01/26 05:22:13;;;;;;;;;;;32.90;60.90;;;;;;4993789;28;19914;-79
2021/01/26 05:24:42;;;;;;;;;;;33.00;61.00;;;;;;4993814;28;19917;-80
2021/01/26 05:27:09;;;;;;;;;;;33.00;59.40;;;;;;4976083;28;20360;-80
2021/01/26 05:29:36;;;;;;;;;;;32.80;58.50;;;;;;4993166;28;20001;-78
2021/01/26 05:32:05;;;;;;;;;;;32.40;57.90;;;;;;4992679;28;19960;-79
2021/01/26 05:34:33;;;;;;;;;;;32.00;58.70;;;;;;4993641;28;19925;-80
2021/01/26 05:37:00;;;;;;;;;;;31.90;59.10;;;;;;4992890;28;19937;-82
2021/01/26 05:39:39;;;;;;;;;;;31.80;58.70;;;;;;5003694;28;19905;-79
2021/01/26 05:42:06;;;;;;;;;;;31.80;58.50;;;;;;5010533;28;19922;-79
2021/01/26 05:44:34;;;;;;;;;;;31.70;59.60;;;;;;4994010;28;19913;-80
2021/01/26 05:47:18;;;;;;;;;;;31.50;60.30;;;;;;4989942;28;19914;-78
2021/01/26 05:49:45;;;;;;;;;;;31.20;61.20;;;;;;4988840;28;19929;-80
2021/01/26 05:52:12;;;;;;;;;;;31.20;61.90;;;;;;4989001;28;20104;-81
2021/01/26 05:54:45;;;;;;;;;;;31.30;62.20;;;;;;4973804;28;19966;-80
2021/01/26 05:57:12;;;;;;;;;;;31.20;62.00;;;;;;4991473;28;19921;-80
2021/01/26 05:59:39;;;;;;;;;;;31.20;62.40;;;;;;4991325;28;19918;-80
2021/01/26 06:02:10;;;;;;;;;;;31.10;62.50;;;;;;4991380;28;19925;-80
2021/01/26 06:04:38;;;;;;;;;;;31.00;62.50;;;;;;4990127;28;19949;-81
2021/01/26 06:07:05;;;;;;;;;;;30.90;62.90;;;;;;4990493;28;19914;-80
2021/01/26 06:09:50;;;;;;;;;;;30.90;63.30;;;;;;4991556;28;19951;-80
2021/01/26 06:12:19;;;;;;;;;;;31.00;62.60;;;;;;4991163;28;20068;-81
2021/01/26 06:14:47;;;;;;;;;;;31.00;63.40;;;;;;4990481;28;19925;-81
2021/01/26 06:17:23;;;;;;;;;;;30.90;62.80;;;;;;4981788;28;19926;-79
2021/01/26 06:20:02;;;;;;;;;;;30.80;63.50;;;;;;4990216;28;19992;-80
2021/01/26 06:22:28;;;;;;;;;;;30.70;63.20;;;;;;4993241;28;19961;-80
2021/01/26 06:25:00;;;;;;;;;;;30.70;63.10;;;;;;4994300;28;19917;-81
2021/01/26 06:27:45;;;;;;;;;;;30.70;63.90;;;;;;4995269;28;19910;-80
2021/01/26 06:30:15;;;;;;;;;;;30.70;63.60;;;;;;4992195;28;19968;-80
2021/01/26 06:33:00;;;;;;;;;;;30.70;64.70;;;;;;4994617;28;19918;-82
2021/01/26 06:35:30;;;;;;;;;;;30.60;64.60;;;;;;4993096;28;20324;-81
2021/01/26 06:38:07;;;;;;;;;;;30.50;65.10;;;;;;4994850;28;19917;-79
2021/01/26 06:40:33;;;;;;;;;;;30.40;65.20;;;;;;4994744;28;20078;-79
2021/01/26 06:43:03;;;;;;;;;;;30.40;65.30;;;;;;4994124;28;20336;-79
2021/01/26 06:45:38;;;;;;;;;;;30.40;65.30;;;;;;4994416;28;19968;-79
2021/01/26 06:48:05;;;;;;;;;;;30.40;65.20;;;;;;4994124;28;19997;-80
2021/01/26 06:50:45;;;;;;;;;;;30.30;64.80;;;;;;4994028;28;19922;-80
2021/01/26 06:53:12;;;;;;;;;;;30.30;65.20;;;;;;4994173;28;19930;-80
2021/01/26 06:55:41;;;;;;;;;;;30.20;64.90;;;;;;4994222;28;20017;-79
2021/01/26 06:58:24;;;;;;;;;;;30.20;65.00;;;;;;4994100;28;19917;-80
2021/01/26 07:00:59;;;;;;;;;;;30.20;64.80;;;;;;4994675;28;20012;-80
2021/01/26 07:03:34;;;;;;;;;;;30.30;65.00;;;;;;4994638;28;19914;-78
2021/01/26 07:06:03;;;;;;;;;;;30.30;65.40;;;;;;4976190;28;19913;-80
2021/01/26 07:08:47;;;;;;;;;;;30.40;65.20;;;;;;4992913;28;19917;-79
2021/01/26 07:11:26;;;;;;;;;;;30.30;65.50;;;;;;4994296;28;19945;-79
2021/01/26 07:14:11;;;;;;;;;;;30.30;65.40;;;;;;4990562;28;19945;-79
2021/01/26 07:16:57;;;;;;;;;;;30.30;65.50;;;;;;4978542;28;20365;-79
2021/01/26 07:19:24;;;;;;;;;;;30.30;66.40;;;;;;4993932;28;19910;-79
2021/01/26 07:22:02;;;;;;;;;;;30.30;66.40;;;;;;4993839;28;19954;-79
2021/01/26 07:24:58;;;;;;;;;;;30.20;66.80;;;;;;4994030;28;20375;-79
2021/01/26 07:27:30;;;;;;;;;;;30.20;67.10;;;;;;4976708;28;20042;-78
2021/01/26 07:29:57;;;;;;;;;;;30.10;67.00;;;;;;4993582;28;19910;-81
2021/01/26 07:32:35;;;;;;;;;;;30.20;67.70;;;;;;4992821;28;19921;-79
2021/01/26 07:35:28;;;;;;;;;;;30.10;67.90;;;;;;4993101;28;19937;-79
2021/01/26 07:38:00;;;;;;;;;;;30.00;67.90;;;;;;4991366;28;20000;-79
2021/01/26 07:40:30;;;;;;;;;;;29.90;68.70;;;;;;4993874;28;19959;-79
2021/01/26 07:42:56;;;;;;;;;;;29.90;68.90;;;;;;4995061;28;19964;-79
2021/01/26 07:45:32;;;;;;;;;;;29.90;69.20;;;;;;5007985;28;20331;-78
2021/01/26 07:48:08;;;;;;;;;;;29.80;68.90;;;;;;4990889;28;19910;-79
2021/01/26 07:50:38;;;;;;;;;;;29.80;69.20;;;;;;4999523;28;19987;-81
2021/01/26 07:53:17;;;;;;;;;;;29.80;68.20;;;;;;4990031;28;19928;-79
2021/01/26 07:56:06;;;;;;;;;;;29.80;68.10;;;;;;4986181;28;19942;-79
2021/01/26 07:58:33;;;;;;;;;;;29.80;68.50;;;;;;4963524;28;19910;-80
2021/01/26 08:01:01;;;;;;;;;;;29.80;67.40;;;;;;4974139;28;19910;-80
2021/01/26 08:03:29;;;;;;;;;;;29.80;67.40;;;;;;4974154;28;20009;-80
2021/01/26 08:05:57;;;;;;;;;;;29.80;67.40;;;;;;4975814;28;19917;-80
2021/01/26 08:08:40;;;;;;;;;;;29.80;67.50;;;;;;4975186;28;19984;-79
2021/01/26 08:11:11;;;;;;;;;;;29.80;68.00;;;;;;4976017;28;20372;-78
2021/01/26 08:13:43;;;;;;;;;;;29.70;68.50;;;;;;4989713;28;19914;-80
2021/01/26 08:16:27;;;;;;;;;;;29.70;69.40;;;;;;4978190;28;19925;-81
2021/01/26 08:18:54;;;;;;;;;;;29.70;69.40;;;;;;4976039;28;19910;-80
2021/01/26 08:21:30;;;;;;;;;;;29.60;70.50;;;;;;4976238;28;19914;-80
2021/01/26 08:24:09;;;;;;;;;;;29.50;70.40;;;;;;4976198;28;19960;-80
2021/01/26 08:26:36;;;;;;;;;;;29.50;70.30;;;;;;4975768;28;20292;-80
2021/01/26 08:29:03;;;;;;;;;;;29.50;70.60;;;;;;4974901;28;19911;-80
2021/01/26 08:31:31;;;;;;;;;;;29.40;70.70;;;;;;4976291;28;19914;-80
2021/01/26 08:34:17;;;;;;;;;;;29.40;70.90;;;;;;4975605;28;19910;-79
2021/01/26 08:36:44;;;;;;;;;;;29.40;71.40;;;;;;4975433;28;19918;-79
2021/01/26 08:39:20;;;;;;;;;;;29.40;71.70;;;;;;4975175;28;19933;-79
2021/01/26 08:41:47;;;;;;;;;;;29.40;71.70;;;;;;4975303;28;19910;-80
2021/01/26 08:44:19;;;;;;;;;;;29.40;71.30;;;;;;4974052;28;20052;-79
2021/01/26 08:46:46;;;;;;;;;;;29.40;71.80;;;;;;4975715;28;19949;-79
2021/01/26 08:49:19;;;;;;;;;;;29.40;71.80;;;;;;4975065;28;19911;-80
2021/01/26 08:51:46;;;;;;;;;;;29.40;72.00;;;;;;4975725;28;19910;-79
2021/01/26 08:54:34;;;;;;;;;;;29.40;71.20;;;;;;4974779;28;20001;-79
2021/01/26 08:57:01;;;;;;;;;;;29.40;71.60;;;;;;4963916;28;20328;-79
2021/01/26 08:59:31;;;;;;;;;;;29.40;71.20;;;;;;4974296;28;20435;-79
2021/01/26 09:01:59;;;;;;;;;;;29.40;71.00;;;;;;4975375;28;19957;-80
2021/01/26 09:04:28;;;;;;;;;;;29.40;71.00;;;;;;4974609;28;20012;-81
2021/01/26 09:06:55;;;;;;;;;;;29.40;71.40;;;;;;4974903;28;20312;-79
2021/01/26 09:09:22;;;;;;;;;;;29.40;71.80;;;;;;4973769;28;19910;-80
2021/01/26 09:11:51;;;;;;;;;;;29.40;71.50;;;;;;4974047;28;19930;-81
2021/01/26 09:14:37;;;;;;;;;;;29.40;72.70;;;;;;4973503;28;20431;-80
2021/01/26 09:17:08;;;;;;;;;;;29.30;72.90;;;;;;4973942;28;19918;-79
2021/01/26 09:19:38;;;;;;;;;;;29.30;74.10;;;;;;4974253;28;19910;-80
2021/01/26 09:22:06;;;;;;;;;;;29.30;75.20;;;;;;4975033;28;20412;-80
2021/01/26 09:24:36;;;;;;;;;;;29.30;75.80;;;;;;4974929;28;20427;-79
2021/01/26 09:27:23;;;;;;;;;;;29.20;76.20;;;;;;4974653;28;19917;-79
2021/01/26 09:30:08;;;;;;;;;;;29.10;76.70;;;;;;4974661;28;20277;-78
2021/01/26 09:32:36;;;;;;;;;;;29.00;77.60;;;;;;4973927;28;19910;-79
2021/01/26 09:35:21;;;;;;;;;;;28.90;79.80;;;;;;4973930;28;19915;-80
2021/01/26 09:37:57;;;;;;;;;;;28.80;80.70;;;;;;4973919;28;20090;-78
2021/01/26 09:40:25;;;;;;;;;;;28.70;81.30;;;;;;4973637;28;19943;-78
2021/01/26 09:43:04;;;;;;;;;;;28.60;80.50;;;;;;4974013;28;19922;-79
2021/01/26 09:45:31;;;;;;;;;;;28.70;80.80;;;;;;4974408;28;19911;-79
2021/01/26 09:47:57;;;;;;;;;;;28.80;79.90;;;;;;4973963;28;19910;-79
2021/01/26 09:50:28;;;;;;;;;;;28.80;79.90;;;;;;4973731;28;19910;-79
2021/01/26 09:53:02;;;;;;;;;;;28.90;79.70;;;;;;4974075;28;20305;-79
2021/01/26 09:55:30;;;;;;;;;;;29.00;78.40;;;;;;4978277;28;19962;-81
2021/01/26 09:57:57;;;;;;;;;;;29.10;77.00;;;;;;4992209;28;20276;-79
2021/01/26 10:00:27;;;;;;;;;;;29.10;76.60;;;;;;4996873;28;19917;-80
2021/01/26 10:03:00;;;;;;;;;;;29.10;76.40;;;;;;4996924;28;19913;-80
2021/01/26 10:05:29;;;;;;;;;;;29.10;77.40;;;;;;4997187;28;20431;-80
2021/01/26 10:08:10;;;;;;;;;;;29.10;78.20;;;;;;4997640;28;19910;-80
2021/01/26 10:10:37;;;;;;;;;;;29.20;77.80;;;;;;4997274;28;20065;-78
2021/01/26 10:13:21;;;;;;;;;;;29.20;77.60;;;;;;4976346;28;19914;-77
2021/01/26 10:15:47;;;;;;;;;;;29.30;78.70;;;;;;4993608;28;19917;-78
2021/01/26 10:18:26;;;;;;;;;;;29.20;79.70;;;;;;4992665;28;20020;-78
2021/01/26 10:20:55;;;;;;;;;;;29.20;79.40;;;;;;4985165;28;20321;-77
2021/01/26 10:23:24;;;;;;;;;;;29.10;80.60;;;;;;4993496;28;19925;-78
2021/01/26 10:25:51;;;;;;;;;;;29.00;80.40;;;;;;4993676;28;19953;-76
2021/01/26 10:28:21;;;;;;;;;;;29.10;78.90;;;;;;4993170;28;19972;-76
2021/01/26 10:30:48;;;;;;;;;;;29.10;80.20;;;;;;4993896;28;19953;-75
2021/01/26 10:33:30;;;;;;;;;;;29.20;79.00;;;;;;4993693;28;19910;-78
2021/01/26 10:36:16;;;;;;;;;;;29.20;81.10;;;;;;4993842;28;19918;-76
2021/01/26 10:38:43;;;;;;;;;;;29.10;81.40;;;;;;4986932;28;20284;-75
2021/01/26 10:41:19;;;;;;;;;;;29.00;79.40;;;;;;4992767;28;19910;-77
2021/01/26 10:43:46;;;;;;;;;;;28.90;81.20;;;;;;4993359;28;19949;-78
2021/01/26 10:46:14;;;;;;;;;;;29.00;76.70;;;;;;4992328;28;20439;-75
2021/01/26 10:48:47;;;;;;;;;;;29.00;78.10;;;;;;4993441;28;19924;-77
2021/01/26 10:51:30;;;;;;;;;;;29.00;79.40;;;;;;4993722;28;19914;-77
2021/01/26 10:53:56;;;;;;;;;;;28.80;80.80;;;;;;4993923;28;19980;-76
2021/01/26 10:56:23;;;;;;;;;;;28.60;82.10;;;;;;4992479;28;19929;-76
2021/01/26 10:58:50;;;;;;;;;;;28.40;81.70;;;;;;4993372;28;20356;-78
2021/01/26 11:01:21;;;;;;;;;;;28.10;82.30;;;;;;4992928;28;19918;-78
2021/01/26 11:03:51;;;;;;;;;;;27.90;83.70;;;;;;4993499;28;19953;-79
2021/01/26 11:06:18;;;;;;;;;;;27.70;84.10;;;;;;4991661;28;19914;-75
2021/01/26 11:08:47;;;;;;;;;;;27.60;84.70;;;;;;4974926;28;19963;-76
2021/01/26 11:11:14;;;;;;;;;;;27.40;84.90;;;;;;4992551;28;19910;-75
2021/01/26 11:13:41;;;;;;;;;;;27.20;85.60;;;;;;4993380;28;19909;-75
2021/01/26 11:16:08;;;;;;;;;;;27.20;86.30;;;;;;4992395;28;19917;-77
2021/01/26 11:18:35;;;;;;;;;;;27.10;87.30;;;;;;4985109;28;19918;-76
2021/01/26 11:21:01;;;;;;;;;;;27.00;88.00;;;;;;4985552;28;20431;-77
2021/01/26 11:23:28;;;;;;;;;;;26.90;89.00;;;;;;4982769;28;19925;-80
2021/01/26 11:25:55;;;;;;;;;;;26.80;89.70;;;;;;4983193;28;20399;-79
2021/01/26 11:28:21;;;;;;;;;;;26.70;90.30;;;;;;4978729;28;19918;-78
2021/01/26 11:30:48;;;;;;;;;;;26.60;90.60;;;;;;4973994;28;20269;-79
2021/01/26 11:33:15;;;;;;;;;;;26.60;90.60;;;;;;4992542;28;19917;-79
2021/01/26 11:35:42;;;;;;;;;;;26.50;91.10;;;;;;4991488;28;19917;-77
2021/01/26 11:38:10;;;;;;;;;;;26.40;91.50;;;;;;4981021;28;20365;-81
2021/01/26 11:40:36;;;;;;;;;;;26.40;91.30;;;;;;4973755;28;19917;-77
2021/01/26 11:43:03;;;;;;;;;;;26.40;91.50;;;;;;4978670;28;19909;-77
2021/01/26 11:45:31;;;;;;;;;;;26.40;91.70;;;;;;4993099;28;20257;-80
2021/01/26 11:47:58;;;;;;;;;;;26.50;91.90;;;;;;4992203;28;19921;-77
2021/01/26 11:50:25;;;;;;;;;;;26.50;92.10;;;;;;4992487;28;19917;-79
2021/01/26 11:52:52;;;;;;;;;;;26.40;92.30;;;;;;4992325;28;20549;-80
2021/01/26 11:55:20;;;;;;;;;;;26.40;92.50;;;;;;4990855;28;19922;-76
2021/01/26 11:57:48;;;;;;;;;;;26.30;93.00;;;;;;4991184;28;20530;-78
2021/01/26 12:00:18;;;;;;;;;;;26.20;93.50;;;;;;4982436;28;19918;-78
2021/01/26 12:02:45;;;;;;;;;;;26.10;94.00;;;;;;4972966;28;20397;-77
2021/01/26 12:05:15;;;;;;;;;;;26.10;94.40;;;;;;4973718;28;19910;-80
2021/01/26 12:07:42;;;;;;;;;;;26.10;94.90;;;;;;4968804;28;19917;-79
2021/01/26 12:10:09;;;;;;;;;;;26.00;95.30;;;;;;4991649;28;19914;-78
2021/01/26 12:12:36;;;;;;;;;;;25.90;95.70;;;;;;4991400;28;19914;-78
2021/01/26 12:15:03;;;;;;;;;;;25.80;96.10;;;;;;4991652;28;19940;-78
2021/01/26 12:17:30;;;;;;;;;;;25.70;96.20;;;;;;4987209;28;20415;-79
2021/01/26 12:19:56;;;;;;;;;;;25.70;96.30;;;;;;4988470;28;19914;-79
2021/01/26 12:22:23;;;;;;;;;;;25.70;96.50;;;;;;4986107;28;19920;-84
2021/01/26 12:24:49;;;;;;;;;;;25.70;96.70;;;;;;4976327;28;19917;-80
2021/01/26 12:27:16;;;;;;;;;;;25.70;96.80;;;;;;4992520;28;20266;-79
2021/01/26 12:29:43;;;;;;;;;;;25.80;96.90;;;;;;4992869;28;19914;-81
2021/01/26 12:32:10;;;;;;;;;;;25.70;97.40;;;;;;4993001;28;19922;-80
2021/01/26 12:34:37;;;;;;;;;;;25.60;97.90;;;;;;4993258;28;19921;-80
2021/01/26 12:37:04;;;;;;;;;;;25.60;98.10;;;;;;4992604;28;19933;-81
2021/01/26 12:39:30;;;;;;;;;;;25.60;98.30;;;;;;4992615;28;19925;-79
2021/01/26 12:41:57;;;;;;;;;;;25.40;98.80;;;;;;4992760;28;19910;-78
2021/01/26 12:44:24;;;;;;;;;;;25.40;99.30;;;;;;4991580;28;20261;-79
2021/01/26 12:46:53;;;;;;;;;;;25.30;99.70;;;;;;4992109;28;20392;-79
2021/01/26 12:49:21;;;;;;;;;;;25.30;99.90;;;;;;4991689;28;20431;-79
2021/01/26 12:51:48;;;;;;;;;;;25.30;99.90;;;;;;4992729;28;20353;-79
2021/01/26 12:54:14;;;;;;;;;;;25.00;99.90;;;;;;4993237;28;19926;-77
2021/01/26 12:56:41;;;;;;;;;;;24.70;99.90;;;;;;4974972;28;19918;-79
2021/01/26 12:59:08;;;;;;;;;;;24.40;99.90;;;;;;4992156;28;19910;-78
2021/01/26 13:01:35;;;;;;;;;;;24.40;99.90;;;;;;4985199;28;20007;-77
2021/01/26 13:04:01;;;;;;;;;;;24.20;99.90;;;;;;4992309;28;19913;-78
2021/01/26 13:06:28;;;;;;;;;;;24.20;99.90;;;;;;4980564;28;20383;-79
2021/01/26 13:08:54;;;;;;;;;;;24.20;99.90;;;;;;4973102;28;19921;-78
2021/01/26 13:11:22;;;;;;;;;;;24.10;99.90;;;;;;4972856;28;19951;-79
2021/01/26 13:13:48;;;;;;;;;;;24.20;99.90;;;;;;4973023;28;19917;-79
2021/01/26 13:16:15;;;;;;;;;;;24.20;99.90;;;;;;4972937;28;20280;-79
2021/01/26 13:18:43;;;;;;;;;;;24.20;99.90;;;;;;4983868;28;19972;-79
2021/01/26 13:21:10;;;;;;;;;;;24.30;99.90;;;;;;4991814;28;19909;-77
2021/01/26 13:23:36;;;;;;;;;;;24.40;99.90;;;;;;4992440;28;19910;-77
2021/01/26 13:26:03;;;;;;;;;;;24.40;99.90;;;;;;4992288;28;19916;-78
2021/01/26 13:28:30;;;;;;;;;;;24.50;99.90;;;;;;4991647;28;20016;-78
2021/01/26 13:30:56;;;;;;;;;;;24.50;99.90;;;;;;4992062;28;19910;-78
2021/01/26 13:33:23;;;;;;;;;;;24.40;99.90;;;;;;4991354;28;20280;-78
2021/01/26 13:35:50;;;;;;;;;;;24.40;99.90;;;;;;4991780;28;19944;-78
2021/01/26 13:38:17;;;;;;;;;;;24.50;99.90;;;;;;4991821;28;19928;-78
2021/01/26 13:40:43;;;;;;;;;;;24.50;99.90;;;;;;4992220;28;20332;-78
2021/01/26 13:43:10;;;;;;;;;;;24.50;99.90;;;;;;4978673;28;19910;-78
2021/01/26 13:45:37;;;;;;;;;;;24.60;99.90;;;;;;4972429;28;20061;-79
2021/01/26 13:48:04;;;;;;;;;;;24.60;99.90;;;;;;4972464;28;20381;-78
2021/01/26 13:50:33;;;;;;;;;;;24.60;99.90;;;;;;4972532;28;20316;-78
2021/01/26 13:53:00;;;;;;;;;;;24.60;99.90;;;;;;4972320;28;20032;-78
2021/01/26 13:55:28;;;;;;;;;;;24.70;99.90;;;;;;4972452;28;19997;-78
2021/01/26 13:57:55;;;;;;;;;;;24.60;99.90;;;;;;5006639;28;19914;-78
2021/01/26 14:00:22;;;;;;;;;;;24.60;99.90;;;;;;4991388;28;19914;-79
2021/01/26 14:02:53;;;;;;;;;;;24.60;99.90;;;;;;4991270;28;19910;-78
2021/01/26 14:05:20;;;;;;;;;;;24.60;99.90;;;;;;4991456;28;19958;-78
2021/01/26 14:07:46;;;;;;;;;;;24.60;99.90;;;;;;4991759;28;19910;-76
2021/01/26 14:10:13;;;;;;;;;;;24.60;99.90;;;;;;4991814;28;19910;-75
2021/01/26 14:12:40;;;;;;;;;;;24.60;99.90;;;;;;4991726;28;20411;-78
2021/01/26 14:15:07;;;;;;;;;;;24.50;99.90;;;;;;4991253;28;19910;-77
2021/01/26 14:17:34;;;;;;;;;;;24.50;99.90;;;;;;4991148;28;20004;-77
2021/01/26 14:20:01;;;;;;;;;;;24.50;99.90;;;;;;4991380;28;19957;-78
2021/01/26 14:22:28;;;;;;;;;;;24.50;99.90;;;;;;4991619;28;19909;-78
2021/01/26 14:24:54;;;;;;;;;;;24.50;99.90;;;;;;4991482;28;20260;-79
2021/01/26 14:27:21;;;;;;;;;;;24.50;99.90;;;;;;4991191;28;20016;-78
2021/01/26 14:29:49;;;;;;;;;;;24.50;99.90;;;;;;4974078;28;20369;-78
2021/01/26 14:32:16;;;;;;;;;;;24.50;99.90;;;;;;4991481;28;19920;-79
2021/01/26 14:34:42;;;;;;;;;;;24.60;99.90;;;;;;4991634;28;19914;-78
2021/01/26 14:37:09;;;;;;;;;;;24.50;99.90;;;;;;4991423;28;19925;-79